Time;durP1;ratioP1;P1;durP2;ratioP2;P2;SDS_P1;SDS_P2;PMS_P1;PMS_P2;Temp;Humidity;BMP_temperature;BMP_pressure;BME280_temperature;BME280_humidity;BME280_pressure;Samples;Min_cycle;Max_cycle;Signal;HPM_P1;HPM_P2
2023/08/15 00:00:03;;;;;;;3.73;3.43;;;20.90;99.90;;;;;;5141374;28;20177;-49
2023/08/15 00:02:33;;;;;;;4.03;3.73;;;20.80;99.90;;;;;;5134904;28;20217;-46
2023/08/15 00:05:04;;;;;;;6.33;3.80;;;20.80;99.90;;;;;;5143494;28;20434;-46
2023/08/15 00:07:35;;;;;;;11.63;4.87;;;20.80;99.90;;;;;;5141604;28;20178;-45
2023/08/15 00:10:06;;;;;;;14.00;4.47;;;20.70;99.90;;;;;;5144092;28;20969;-45
2023/08/15 00:12:37;;;;;;;4.57;4.07;;;20.60;99.90;;;;;;5142114;28;20186;-45
2023/08/15 00:15:09;;;;;;;6.00;4.90;;;20.50;99.90;;;;;;5124354;28;20820;-46
2023/08/15 00:17:40;;;;;;;4.70;4.30;;;20.40;99.90;;;;;;5130800;28;20685;-45
2023/08/15 00:20:10;;;;;;;7.20;5.17;;;20.40;99.90;;;;;;5144145;28;20442;-46
2023/08/15 00:22:41;;;;;;;6.70;4.03;;;20.40;99.90;;;;;;5147396;28;20493;-46
2023/08/15 00:25:12;;;;;;;6.53;3.90;;;20.40;99.90;;;;;;5149536;28;20256;-46
2023/08/15 00:27:43;;;;;;;5.70;4.30;;;20.40;99.90;;;;;;5132541;28;20177;-46
2023/08/15 00:30:14;;;;;;;5.10;4.60;;;20.40;99.90;;;;;;5146189;28;20244;-46
2023/08/15 00:32:46;;;;;;;11.00;4.60;;;20.50;99.90;;;;;;5145966;28;20186;-46
2023/08/15 00:35:17;;;;;;;6.90;4.50;;;20.40;99.90;;;;;;5147402;28;20209;-46
2023/08/15 00:37:47;;;;;;;3.77;3.37;;;20.40;99.90;;;;;;5150321;28;20441;-46
2023/08/15 00:40:18;;;;;;;3.50;3.20;;;20.40;99.90;;;;;;5149781;28;20267;-45
2023/08/15 00:42:49;;;;;;;5.80;4.00;;;20.40;99.90;;;;;;5149759;28;20376;-46
2023/08/15 00:45:20;;;;;;;4.00;3.70;;;20.50;99.90;;;;;;5145388;28;20615;-46
2023/08/15 00:47:50;;;;;;;6.27;3.73;;;20.70;99.90;;;;;;5147091;28;20250;-46
2023/08/15 00:50:23;;;;;;;3.67;3.30;;;20.60;99.90;;;;;;5150660;28;20237;-45
2023/08/15 00:52:54;;;;;;;4.10;3.43;;;20.60;99.90;;;;;;5147866;28;20209;-46
2023/08/15 00:55:26;;;;;;;3.10;2.90;;;20.50;99.90;;;;;;5151736;28;21496;-45
2023/08/15 00:57:57;;;;;;;3.50;3.23;;;20.40;99.90;;;;;;5131893;28;20429;-45
2023/08/15 01:00:28;;;;;;;3.33;2.97;;;20.30;99.90;;;;;;5144544;28;20504;-46
2023/08/15 01:02:59;;;;;;;3.73;3.53;;;20.20;99.90;;;;;;5133071;28;20456;-46
2023/08/15 01:05:30;;;;;;;6.50;3.77;;;20.20;99.90;;;;;;5147193;28;20264;-46
2023/08/15 01:08:01;;;;;;;4.77;3.33;;;20.10;99.90;;;;;;5150856;28;20273;-46
2023/08/15 01:10:31;;;;;;;3.70;3.50;;;20.10;99.90;;;;;;5131671;28;20257;-46
2023/08/15 01:13:12;;;;;;;4.43;3.90;;;20.10;99.90;;;;;;5133274;28;20189;-46
2023/08/15 01:15:49;;;;;;;3.00;2.90;;;20.10;99.90;;;;;;5131519;28;20208;-46
2023/08/15 01:18:23;;;;;;;3.87;3.57;;;20.10;99.90;;;;;;5145583;28;20532;-46
2023/08/15 01:20:56;;;;;;;9.10;3.13;;;20.00;99.90;;;;;;5130004;28;20476;-46
2023/08/15 01:23:46;;;;;;;2.90;2.70;;;20.10;99.90;;;;;;5144459;28;20433;-46
2023/08/15 01:26:17;;;;;;;3.63;3.43;;;20.00;99.90;;;;;;5128960;28;20451;-46
2023/08/15 01:28:48;;;;;;;6.23;3.80;;;19.90;99.90;;;;;;5135635;28;20433;-46
2023/08/15 01:31:32;;;;;;;5.53;3.20;;;19.90;99.90;;;;;;5142591;28;20218;-47
2023/08/15 01:34:17;;;;;;;5.80;4.50;;;19.90;99.90;;;;;;5144254;28;20174;-46
2023/08/15 01:37:13;;;;;;;5.33;3.70;;;19.90;99.90;;;;;;5142540;28;20530;-46
2023/08/15 01:39:47;;;;;;;3.53;3.20;;;19.80;99.90;;;;;;5130620;28;20524;-46
2023/08/15 01:42:21;;;;;;;3.50;3.27;;;19.90;99.90;;;;;;5145936;28;20519;-46
2023/08/15 01:44:55;;;;;;;6.07;3.70;;;19.80;99.90;;;;;;5130577;28;20448;-47
2023/08/15 01:47:26;;;;;;;3.23;2.93;;;19.70;99.90;;;;;;5129062;28;20444;-46
2023/08/15 01:49:56;;;;;;;2.90;2.70;;;19.70;99.90;;;;;;5131935;28;20432;-47
2023/08/15 01:52:27;;;;;;;2.67;2.47;;;19.60;99.90;;;;;;5134618;28;20312;-47
2023/08/15 01:54:58;;;;;;;2.97;2.80;;;19.70;99.90;;;;;;5149523;28;20209;-46
2023/08/15 01:57:29;;;;;;;6.23;3.57;;;19.70;99.90;;;;;;5145088;28;20557;-46
2023/08/15 01:59:59;;;;;;;2.57;2.47;;;19.70;99.90;;;;;;5147310;28;20174;-46
2023/08/15 02:02:30;;;;;;;5.90;3.20;;;19.70;99.90;;;;;;5146152;28;20213;-46
2023/08/15 02:05:02;;;;;;;3.70;3.33;;;19.60;99.90;;;;;;5146504;28;20229;-46
2023/08/15 02:07:33;;;;;;;4.27;3.67;;;19.60;99.90;;;;;;5144658;28;20193;-46
2023/08/15 02:10:04;;;;;;;3.27;3.07;;;19.50;99.90;;;;;;5146875;28;20929;-46
2023/08/15 02:12:35;;;;;;;5.00;2.87;;;19.50;99.90;;;;;;5134345;28;20277;-46
2023/08/15 02:15:06;;;;;;;2.80;2.60;;;19.50;99.90;;;;;;5132656;28;20604;-46
2023/08/15 02:17:37;;;;;;;3.30;3.10;;;19.60;99.90;;;;;;5146048;28;20268;-47
2023/08/15 02:20:08;;;;;;;4.23;3.30;;;19.60;99.90;;;;;;5144506;28;20470;-46
2023/08/15 02:22:39;;;;;;;4.07;3.33;;;19.50;99.90;;;;;;5147996;28;20181;-46
2023/08/15 02:25:10;;;;;;;4.50;3.87;;;19.50;99.90;;;;;;5145070;28;20496;-45
2023/08/15 02:27:40;;;;;;;3.80;3.50;;;19.40;99.90;;;;;;5144235;28;20221;-45
2023/08/15 02:30:12;;;;;;;4.40;4.00;;;19.40;99.90;;;;;;5132644;28;20201;-46
2023/08/15 02:32:42;;;;;;;4.00;3.70;;;19.40;99.90;;;;;;5149153;28;20186;-46
2023/08/15 02:35:13;;;;;;;5.60;4.43;;;19.30;99.90;;;;;;5148154;28;20503;-46
2023/08/15 02:37:44;;;;;;;4.70;4.30;;;19.30;99.90;;;;;;5142785;28;20201;-46
2023/08/15 02:40:14;;;;;;;3.63;3.10;;;19.30;99.90;;;;;;5146094;28;20186;-47
2023/08/15 02:42:45;;;;;;;5.20;4.80;;;19.30;99.90;;;;;;5142640;28;20188;-46
2023/08/15 02:45:16;;;;;;;4.33;4.13;;;19.30;99.90;;;;;;5128489;28;20285;-46
2023/08/15 02:47:47;;;;;;;5.43;4.93;;;19.30;99.90;;;;;;5147482;28;20245;-46
2023/08/15 02:50:18;;;;;;;7.23;4.73;;;19.30;99.90;;;;;;5143343;28;20185;-47
2023/08/15 02:52:49;;;;;;;8.43;4.80;;;19.30;99.90;;;;;;5146978;28;20197;-47
2023/08/15 02:55:20;;;;;;;7.00;5.77;;;19.30;99.90;;;;;;5141605;28;20864;-46
2023/08/15 02:57:50;;;;;;;6.50;5.47;;;19.30;99.90;;;;;;5129249;28;20433;-46
2023/08/15 03:00:21;;;;;;;10.23;5.77;;;19.30;99.90;;;;;;5126108;28;20562;-47
2023/08/15 03:02:55;;;;;;;7.13;6.13;;;19.30;99.90;;;;;;5139497;28;20248;-46
2023/08/15 03:05:25;;;;;;;9.80;6.10;;;19.30;99.90;;;;;;5142251;28;20210;-46
2023/08/15 03:07:56;;;;;;;7.00;6.30;;;19.20;99.90;;;;;;5147061;28;20492;-45
2023/08/15 03:10:27;;;;;;;7.13;6.43;;;19.30;99.90;;;;;;5128877;28;20256;-46
2023/08/15 03:12:58;;;;;;;9.40;7.43;;;19.20;99.90;;;;;;5127301;28;20198;-46
2023/08/15 03:15:29;;;;;;;8.90;8.00;;;19.20;99.90;;;;;;5141636;28;20570;-47
2023/08/15 03:18:00;;;;;;;15.07;9.50;;;19.20;99.90;;;;;;5147349;28;20444;-46
2023/08/15 03:20:30;;;;;;;15.90;11.00;;;19.20;99.90;;;;;;5142587;28;20218;-47
2023/08/15 03:23:01;;;;;;;12.90;10.63;;;19.20;99.90;;;;;;5136363;28;20190;-46
2023/08/15 03:25:32;;;;;;;11.80;8.47;;;19.20;99.90;;;;;;5143813;28;20232;-47
2023/08/15 03:28:02;;;;;;;14.10;9.43;;;19.20;99.90;;;;;;5130113;28;20186;-47
2023/08/15 03:30:34;;;;;;;17.53;10.20;;;19.20;99.90;;;;;;5142705;28;20202;-46
2023/08/15 03:33:05;;;;;;;18.30;11.40;;;19.20;99.90;;;;;;5146756;28;20204;-46
2023/08/15 03:35:35;;;;;;;20.07;12.73;;;19.20;99.90;;;;;;5140926;28;20974;-46
2023/08/15 03:38:06;;;;;;;26.00;12.47;;;19.20;99.90;;;;;;5129270;28;20182;-45
2023/08/15 03:40:37;;;;;;;22.50;12.33;;;19.20;99.90;;;;;;5144714;28;20256;-45
2023/08/15 03:43:08;;;;;;;18.70;11.67;;;19.60;99.90;;;;;;5146435;28;20196;-45
2023/08/15 03:45:39;;;;;;;20.97;12.23;;;19.10;99.90;;;;;;5143306;28;20190;-45
2023/08/15 03:48:09;;;;;;;17.13;11.73;;;19.10;99.90;;;;;;5147452;28;20185;-46
2023/08/15 03:50:40;;;;;;;19.63;12.23;;;19.20;99.90;;;;;;5130963;28;20987;-46
2023/08/15 03:53:11;;;;;;;14.13;11.97;;;19.10;99.90;;;;;;5148652;28;20190;-46
2023/08/15 03:55:42;;;;;;;23.50;13.70;;;19.10;99.90;;;;;;5151228;28;20224;-46
2023/08/15 03:58:13;;;;;;;24.30;12.67;;;19.10;99.90;;;;;;5150451;28;20185;-46
2023/08/15 04:00:44;;;;;;;22.03;13.67;;;19.10;99.90;;;;;;5148119;28;21932;-46
2023/08/15 04:03:16;;;;;;;18.60;11.70;;;19.10;99.90;;;;;;5136324;28;20553;-46
2023/08/15 04:05:47;;;;;;;18.97;13.03;;;19.10;99.90;;;;;;5146810;28;20445;-46
2023/08/15 04:08:18;;;;;;;12.13;9.60;;;19.10;99.90;;;;;;5145134;28;20451;-46
2023/08/15 04:10:49;;;;;;;16.03;12.00;;;19.10;99.90;;;;;;5148891;28;20468;-46
2023/08/15 04:13:19;;;;;;;26.50;15.20;;;19.10;99.90;;;;;;5130449;28;20194;-47
2023/08/15 04:15:50;;;;;;;23.07;14.67;;;19.10;99.90;;;;;;5143641;28;20264;-47
2023/08/15 04:18:21;;;;;;;24.00;14.70;;;19.10;99.90;;;;;;5135389;28;20368;-46
2023/08/15 04:20:52;;;;;;;30.37;16.90;;;19.10;99.90;;;;;;5148097;28;20201;-46
2023/08/15 04:23:23;;;;;;;20.30;13.07;;;19.20;99.90;;;;;;5134143;28;20650;-46
2023/08/15 04:25:54;;;;;;;21.37;13.40;;;19.20;99.90;;;;;;5130298;28;20463;-47
2023/08/15 04:28:25;;;;;;;24.33;14.83;;;19.20;99.90;;;;;;5146470;28;20200;-46
2023/08/15 04:30:55;;;;;;;33.47;17.13;;;19.40;99.90;;;;;;5142904;28;20217;-47
2023/08/15 04:33:26;;;;;;;24.47;15.97;;;19.40;99.90;;;;;;5141015;28;20204;-46
2023/08/15 04:35:57;;;;;;;37.63;17.73;;;19.40;99.90;;;;;;5131337;28;20264;-46
2023/08/15 04:38:28;;;;;;;26.30;15.17;;;19.50;99.90;;;;;;5108820;28;20188;-47
2023/08/15 04:40:58;;;;;;;26.40;16.30;;;19.50;99.90;;;;;;5136876;28;20292;-46
2023/08/15 04:43:29;;;;;;;27.07;15.70;;;19.50;99.90;;;;;;5146111;28;20236;-48
2023/08/15 04:46:00;;;;;;;20.27;13.40;;;19.50;99.90;;;;;;5145456;28;20186;-47
2023/08/15 04:48:31;;;;;;;25.47;17.60;;;19.50;99.90;;;;;;5146372;28;20213;-47
2023/08/15 04:51:01;;;;;;;18.40;14.50;;;19.60;99.90;;;;;;5146823;28;20209;-46
2023/08/15 04:53:32;;;;;;;35.23;19.43;;;19.60;99.90;;;;;;5130195;28;20190;-46
2023/08/15 04:56:03;;;;;;;73.40;26.10;;;19.90;99.90;;;;;;5129696;28;20272;-46
2023/08/15 04:58:33;;;;;;;27.00;18.70;;;20.30;99.90;;;;;;5129662;28;20214;-46
2023/08/15 05:01:04;;;;;;;18.37;14.57;;;21.40;99.90;;;;;;5144819;28;20206;-46
2023/08/15 05:03:35;;;;;;;28.60;12.27;;;22.50;99.90;;;;;;5132688;28;20613;-46
2023/08/15 05:06:06;;;;;;;12.67;9.93;;;22.70;99.90;;;;;;5142678;28;20531;-46
2023/08/15 05:08:37;;;;;;;12.10;9.60;;;22.40;99.90;;;;;;5128688;28;20197;-48
2023/08/15 05:11:08;;;;;;;20.27;9.87;;;21.80;99.90;;;;;;5128475;28;20300;-46
2023/08/15 05:13:39;;;;;;;8.87;7.93;;;21.30;99.90;;;;;;5145539;28;20276;-46
2023/08/15 05:16:09;;;;;;;18.40;9.20;;;21.00;99.90;;;;;;5146336;28;20567;-46
2023/08/15 05:18:40;;;;;;;10.37;9.27;;;20.80;99.90;;;;;;5128563;28;20534;-46
2023/08/15 05:21:11;;;;;;;8.80;7.90;;;20.80;99.90;;;;;;5128143;28;20693;-46
2023/08/15 05:23:42;;;;;;;10.23;9.30;;;21.50;99.90;;;;;;5128791;28;20197;-45
2023/08/15 05:26:12;;;;;;;7.80;6.70;;;23.10;99.90;;;;;;5130219;28;20186;-46
2023/08/15 05:28:43;;;;;;;72.43;22.73;;;24.70;99.90;;;;;;5146023;28;20190;-47
2023/08/15 05:31:14;;;;;;;6.90;5.37;;;26.10;99.90;;;;;;5144965;28;20651;-46
2023/08/15 05:33:45;;;;;;;4.37;4.03;;;27.20;99.90;;;;;;5125853;28;20273;-46
2023/08/15 05:36:16;;;;;;;3.50;3.30;;;27.70;99.90;;;;;;5144106;28;20564;-46
2023/08/15 05:38:47;;;;;;;4.97;4.57;;;28.60;99.90;;;;;;5141652;28;20636;-47
2023/08/15 05:41:18;;;;;;;3.83;3.47;;;29.60;99.90;;;;;;5128279;28;20595;-49
2023/08/15 05:43:48;;;;;;;3.97;3.67;;;30.40;99.90;;;;;;5144093;28;20268;-47
2023/08/15 05:46:19;;;;;;;4.17;3.77;;;30.70;99.90;;;;;;5142042;28;20193;-47
2023/08/15 05:48:50;;;;;;;3.40;3.20;;;31.30;99.90;;;;;;5144494;28;20260;-48
2023/08/15 05:51:21;;;;;;;2.77;2.33;;;31.40;99.90;;;;;;5145490;28;20205;-47
2023/08/15 05:53:52;;;;;;;6.83;2.60;;;31.60;99.90;;;;;;5143348;28;20686;-47
2023/08/15 05:56:22;;;;;;;2.57;2.40;;;32.00;99.90;;;;;;5145518;28;20653;-48
2023/08/15 05:58:53;;;;;;;4.33;2.80;;;32.50;99.90;;;;;;5128660;28;20181;-48
2023/08/15 06:01:24;;;;;;;4.37;2.23;;;33.60;99.90;;;;;;5144407;28;20223;-49
2023/08/15 06:03:55;;;;;;;3.33;2.63;;;34.70;99.90;;;;;;5124775;28;20721;-48
2023/08/15 06:06:26;;;;;;;2.92;2.67;;;35.80;92.40;;;;;;5141939;28;20309;-49
2023/08/15 06:08:57;;;;;;;3.60;2.35;;;36.50;80.40;;;;;;5141753;28;20189;-49
2023/08/15 06:11:28;;;;;;;5.05;2.28;;;36.70;75.50;;;;;;5128327;28;20307;-48
2023/08/15 06:13:59;;;;;;;5.07;2.17;;;37.00;65.30;;;;;;5140385;28;20625;-49
2023/08/15 06:16:30;;;;;;;3.55;1.92;;;37.30;63.20;;;;;;5145579;28;20220;-49
2023/08/15 06:19:00;;;;;;;2.47;2.20;;;37.00;61.00;;;;;;5142491;28;20203;-48
2023/08/15 06:21:31;;;;;;;4.82;2.17;;;37.70;60.80;;;;;;5134803;28;20247;-48
2023/08/15 06:24:02;;;;;;;2.50;2.40;;;38.40;58.90;;;;;;5124171;28;20272;-50
2023/08/15 06:26:33;;;;;;;2.53;2.25;;;38.60;53.30;;;;;;5127475;28;20272;-48
2023/08/15 06:29:05;;;;;;;2.75;2.40;;;38.50;52.00;;;;;;5143207;28;20280;-48
2023/08/15 06:31:36;;;;;;;2.50;2.22;;;38.60;52.90;;;;;;5128589;28;20216;-49
2023/08/15 06:34:07;;;;;;;3.63;2.40;;;38.90;51.60;;;;;;5136039;28;20209;-48
2023/08/15 06:36:38;;;;;;;6.35;3.38;;;39.40;49.80;;;;;;5143379;28;20212;-48
2023/08/15 06:39:08;;;;;;;3.33;2.70;;;38.80;49.20;;;;;;5123544;28;20627;-50
2023/08/15 06:41:39;;;;;;;2.38;2.20;;;38.30;49.60;;;;;;5139560;28;20300;-48
2023/08/15 06:44:10;;;;;;;3.78;2.58;;;38.60;49.60;;;;;;5141867;28;20176;-50
2023/08/15 06:46:41;;;;;;;3.15;2.95;;;38.60;48.70;;;;;;5130829;28;20197;-50
2023/08/15 06:49:11;;;;;;;3.22;2.90;;;38.00;48.40;;;;;;5142379;28;20239;-49
2023/08/15 06:51:42;;;;;;;3.00;2.50;;;37.30;49.40;;;;;;5143611;28;20300;-49
2023/08/15 06:54:13;;;;;;;3.40;2.67;;;37.40;52.10;;;;;;5142393;28;20181;-48
2023/08/15 06:56:43;;;;;;;3.05;2.13;;;38.30;49.30;;;;;;5144024;28;20601;-49
2023/08/15 06:59:14;;;;;;;3.50;2.63;;;39.30;48.50;;;;;;5129247;28;20247;-50
2023/08/15 07:01:45;;;;;;;7.45;1.80;;;40.40;47.40;;;;;;5142405;28;20248;-50
2023/08/15 07:04:16;;;;;;;2.35;2.15;;;41.00;45.70;;;;;;5140910;28;20184;-49
2023/08/15 07:06:47;;;;;;;2.10;1.92;;;41.40;43.20;;;;;;5138466;28;20203;-49
2023/08/15 07:09:18;;;;;;;9.68;2.20;;;41.70;43.40;;;;;;5137822;28;20215;-48
2023/08/15 07:11:49;;;;;;;2.10;2.00;;;41.70;42.90;;;;;;5139680;28;20217;-49
2023/08/15 07:14:20;;;;;;;4.20;2.08;;;41.10;42.30;;;;;;5141913;28;20192;-48
2023/08/15 07:16:51;;;;;;;2.88;2.65;;;40.50;43.10;;;;;;5125720;28;20264;-49
2023/08/15 07:19:22;;;;;;;2.78;2.30;;;40.10;43.50;;;;;;5123985;28;20610;-49
2023/08/15 07:21:53;;;;;;;4.10;2.97;;;40.10;45.20;;;;;;5140979;28;20809;-49
2023/08/15 07:24:24;;;;;;;4.40;2.40;;;40.90;44.20;;;;;;5142632;28;20210;-48
2023/08/15 07:26:55;;;;;;;5.13;2.20;;;40.90;42.40;;;;;;5137566;28;20659;-50
2023/08/15 07:29:26;;;;;;;2.00;1.90;;;40.70;42.30;;;;;;5142354;28;20232;-49
2023/08/15 07:31:56;;;;;;;6.25;2.75;;;40.80;42.60;;;;;;5128289;28;20228;-50
2023/08/15 07:34:27;;;;;;;5.30;2.05;;;41.20;42.00;;;;;;5126893;28;20173;-49
2023/08/15 07:36:58;;;;;;;2.28;2.17;;;41.20;42.50;;;;;;5138787;28;20209;-50
2023/08/15 07:39:28;;;;;;;3.35;2.53;;;42.00;41.20;;;;;;5137912;28;20263;-48
2023/08/15 07:41:59;;;;;;;4.47;2.63;;;42.10;40.10;;;;;;5133281;28;20218;-49
2023/08/15 07:44:30;;;;;;;4.15;2.63;;;42.30;40.60;;;;;;5138863;28;20197;-51
2023/08/15 07:47:01;;;;;;;4.72;2.75;;;42.40;40.70;;;;;;5115520;28;20194;-49
2023/08/15 07:49:32;;;;;;;2.67;2.50;;;41.90;39.60;;;;;;5124167;28;20186;-48
2023/08/15 07:52:03;;;;;;;2.33;1.80;;;41.00;40.70;;;;;;5135933;28;20291;-49
2023/08/15 07:54:34;;;;;;;2.63;2.42;;;41.30;41.80;;;;;;5126702;28;20203;-49
2023/08/15 07:57:05;;;;;;;2.25;2.05;;;41.30;41.00;;;;;;5142071;28;20185;-47
2023/08/15 07:59:36;;;;;;;2.33;2.13;;;41.80;41.20;;;;;;5141477;28;20218;-49
2023/08/15 08:02:06;;;;;;;2.33;2.20;;;42.40;40.80;;;;;;5129952;28;20212;-48
2023/08/15 08:04:37;;;;;;;4.35;2.30;;;42.40;39.00;;;;;;5135245;28;20181;-47
2023/08/15 08:07:08;;;;;;;3.33;3.03;;;42.50;38.70;;;;;;5138664;28;20734;-50
2023/08/15 08:09:39;;;;;;;3.08;2.63;;;42.50;39.00;;;;;;5136638;28;20192;-48
2023/08/15 08:12:10;;;;;;;2.00;2.00;;;41.80;39.50;;;;;;5115691;28;20196;-47
2023/08/15 08:14:40;;;;;;;3.10;2.80;;;41.10;40.20;;;;;;5137043;28;20749;-48
2023/08/15 08:17:11;;;;;;;4.65;2.20;;;41.00;40.50;;;;;;5132441;28;20185;-48
2023/08/15 08:19:42;;;;;;;5.65;3.08;;;41.40;40.90;;;;;;5125133;28;20686;-46
2023/08/15 08:22:12;;;;;;;2.58;2.40;;;41.90;39.50;;;;;;5135123;28;20213;-49
2023/08/15 08:24:43;;;;;;;2.00;1.90;;;41.40;39.30;;;;;;5137200;28;20235;-50
2023/08/15 08:27:14;;;;;;;6.38;2.90;;;41.50;39.80;;;;;;5134197;28;20189;-48
2023/08/15 08:29:44;;;;;;;2.13;2.10;;;41.70;39.70;;;;;;5135318;28;20205;-49
2023/08/15 08:32:15;;;;;;;1.73;1.73;;;41.80;39.70;;;;;;5138663;28;20205;-49
2023/08/15 08:34:46;;;;;;;2.53;2.33;;;42.10;40.10;;;;;;5141495;28;20188;-50
2023/08/15 08:37:17;;;;;;;4.53;2.17;;;42.10;39.60;;;;;;5139923;28;20220;-50
2023/08/15 08:39:47;;;;;;;4.22;2.72;;;41.30;40.20;;;;;;5143098;28;20189;-48
2023/08/15 08:42:18;;;;;;;3.08;2.88;;;40.70;40.90;;;;;;5129054;28;20209;-48
2023/08/15 08:44:50;;;;;;;3.13;2.95;;;39.90;42.20;;;;;;5148272;28;20224;-48
2023/08/15 08:47:22;;;;;;;3.17;2.88;;;38.80;44.10;;;;;;5144196;28;20710;-50
2023/08/15 08:49:55;;;;;;;2.92;2.83;;;37.70;46.00;;;;;;5146569;28;20198;-47
2023/08/15 08:52:27;;;;;;;2.88;2.67;;;36.60;47.90;;;;;;5129189;28;20612;-47
2023/08/15 08:54:58;;;;;;;4.03;3.08;;;35.60;49.30;;;;;;5140098;28;20291;-48
2023/08/15 08:57:32;;;;;;;3.58;3.30;;;34.60;51.10;;;;;;5150238;28;20272;-47
2023/08/15 09:00:09;;;;;;;3.88;3.58;;;33.90;52.90;;;;;;5124022;28;20172;-49
2023/08/15 09:02:40;;;;;;;3.65;3.35;;;33.50;54.60;;;;;;5131062;28;20196;-50
2023/08/15 09:05:12;;;;;;;3.70;3.50;;;32.90;56.90;;;;;;5143995;28;20198;-48
2023/08/15 09:07:42;;;;;;;3.72;3.42;;;32.50;56.40;;;;;;5152527;28;20189;-48
2023/08/15 09:10:13;;;;;;;4.18;3.88;;;32.00;58.10;;;;;;5142257;28;20587;-47
2023/08/15 09:12:45;;;;;;;3.73;3.43;;;31.80;60.30;;;;;;5141366;28;20181;-51
2023/08/15 09:15:16;;;;;;;5.25;4.22;;;31.70;60.00;;;;;;5143986;28;20337;-48
2023/08/15 09:17:47;;;;;;;3.40;3.30;;;31.60;60.70;;;;;;5141401;28;20182;-50
2023/08/15 09:20:18;;;;;;;3.23;3.03;;;31.60;61.10;;;;;;5130459;28;20269;-48
2023/08/15 09:22:50;;;;;;;6.27;4.10;;;31.50;61.60;;;;;;5142141;28;20296;-48
2023/08/15 09:25:23;;;;;;;3.23;3.10;;;31.40;62.30;;;;;;5145276;28;20185;-47
2023/08/15 09:27:53;;;;;;;3.80;3.60;;;31.50;61.20;;;;;;5144549;28;20534;-48
2023/08/15 09:30:24;;;;;;;5.00;4.60;;;31.70;60.80;;;;;;5146621;28;20300;-46
2023/08/15 09:32:55;;;;;;;3.43;2.97;;;31.70;59.80;;;;;;5138744;28;20193;-49
2023/08/15 09:35:26;;;;;;;3.10;2.97;;;31.40;61.30;;;;;;5139921;28;20213;-48
2023/08/15 09:37:57;;;;;;;6.73;3.17;;;31.50;63.10;;;;;;5126496;28;20188;-48
2023/08/15 09:40:28;;;;;;;3.60;3.40;;;31.20;62.00;;;;;;5127403;28;20695;-47
2023/08/15 09:42:58;;;;;;;19.53;4.90;;;31.50;62.80;;;;;;5144509;28;20192;-47
2023/08/15 09:45:30;;;;;;;4.40;4.00;;;32.00;61.70;;;;;;5141271;28;20729;-48
2023/08/15 09:48:01;;;;;;;4.70;3.20;;;32.30;61.40;;;;;;5144939;28;20566;-48
2023/08/15 09:50:34;;;;;;;3.73;3.53;;;32.60;60.20;;;;;;5130066;28;20208;-48
2023/08/15 09:53:05;;;;;;;10.00;3.83;;;32.60;61.10;;;;;;5126169;28;20553;-46
2023/08/15 09:55:38;;;;;;;3.83;3.63;;;32.40;61.30;;;;;;5133604;28;20212;-47
2023/08/15 09:58:08;;;;;;;5.40;3.63;;;32.40;60.90;;;;;;5146006;28;20173;-47
2023/08/15 10:00:39;;;;;;;4.38;4.00;;;32.40;61.30;;;;;;5141650;28;20549;-47
2023/08/15 10:03:20;;;;;;;4.93;4.53;;;32.60;61.20;;;;;;5138596;28;20197;-47
2023/08/15 10:06:01;;;;;;;4.75;4.38;;;32.80;61.30;;;;;;5145978;28;20177;-48
2023/08/15 10:08:32;;;;;;;4.63;4.15;;;32.70;60.20;;;;;;5142065;28;20655;-48
2023/08/15 10:11:06;;;;;;;6.20;4.65;;;32.50;61.90;;;;;;5136268;28;20273;-48
2023/08/15 10:13:38;;;;;;;5.43;4.05;;;32.30;62.20;;;;;;5136191;28;20515;-46
2023/08/15 10:16:13;;;;;;;4.95;4.35;;;32.20;63.70;;;;;;5146410;28;20205;-48
2023/08/15 10:18:56;;;;;;;4.30;4.10;;;32.20;62.20;;;;;;5125998;28;20645;-50
2023/08/15 10:21:46;;;;;;;4.50;4.27;;;32.00;62.40;;;;;;5146561;28;20228;-50
2023/08/15 10:24:17;;;;;;;4.87;4.47;;;31.80;62.70;;;;;;5146419;28;20264;-48
2023/08/15 10:26:53;;;;;;;4.33;4.03;;;31.50;63.70;;;;;;5135219;28;20184;-49
2023/08/15 10:29:23;;;;;;;5.13;4.10;;;31.40;65.40;;;;;;5135741;28;20188;-49
2023/08/15 10:32:00;;;;;;;10.43;4.10;;;31.20;65.60;;;;;;5132420;28;20247;-50
2023/08/15 10:34:34;;;;;;;15.70;4.80;;;31.10;66.30;;;;;;5131980;28;20252;-50
2023/08/15 10:37:33;;;;;;;5.13;4.63;;;31.00;67.60;;;;;;5134242;28;20201;-48
2023/08/15 10:40:08;;;;;;;5.63;5.13;;;30.90;66.60;;;;;;5130473;28;20224;-48
2023/08/15 10:43:02;;;;;;;5.50;4.77;;;30.60;67.60;;;;;;5123877;28;20185;-47
2023/08/15 10:45:40;;;;;;;4.90;4.60;;;30.30;68.80;;;;;;5139464;28;20185;-48
2023/08/15 10:48:12;;;;;;;4.10;3.80;;;30.00;70.00;;;;;;5145403;28;20658;-48
2023/08/15 10:50:48;;;;;;;4.80;4.50;;;30.10;71.90;;;;;;5141211;28;20213;-49
2023/08/15 10:53:19;;;;;;;4.30;4.07;;;30.10;71.50;;;;;;5125048;28;20192;-48
2023/08/15 10:55:49;;;;;;;5.93;4.60;;;29.90;72.70;;;;;;5127069;28;20279;-48
2023/08/15 10:58:22;;;;;;;4.67;4.37;;;29.80;73.20;;;;;;5144143;28;20189;-48
2023/08/15 11:00:54;;;;;;;5.43;4.90;;;29.90;73.20;;;;;;5135636;28;20212;-50
2023/08/15 11:03:26;;;;;;;5.20;4.70;;;29.90;72.20;;;;;;5115862;28;20568;-49
2023/08/15 11:06:13;;;;;;;5.60;5.20;;;29.90;72.00;;;;;;5131043;28;20492;-48
2023/08/15 11:08:49;;;;;;;6.13;4.53;;;30.10;72.60;;;;;;5124023;28;20433;-49
2023/08/15 11:11:20;;;;;;;11.97;5.10;;;30.10;72.90;;;;;;5133724;28;20460;-46
2023/08/15 11:13:55;;;;;;;5.97;5.57;;;30.10;72.60;;;;;;5146497;28;20437;-48
2023/08/15 11:16:26;;;;;;;7.07;5.27;;;29.90;74.40;;;;;;5143636;28;20216;-48
2023/08/15 11:19:00;;;;;;;7.00;6.17;;;29.70;75.70;;;;;;5140080;28;20428;-49
2023/08/15 11:21:30;;;;;;;4.80;4.47;;;29.80;78.30;;;;;;5139740;28;20200;-50
2023/08/15 11:24:01;;;;;;;7.83;5.63;;;30.10;76.10;;;;;;5146713;28;20439;-48
2023/08/15 11:26:32;;;;;;;5.47;5.07;;;30.10;76.90;;;;;;5139881;28;20236;-49
2023/08/15 11:29:03;;;;;;;5.80;5.40;;;30.20;76.30;;;;;;5144384;28;20197;-48
2023/08/15 11:31:35;;;;;;;5.47;5.10;;;30.40;75.60;;;;;;5125892;28;20212;-48
2023/08/15 11:34:08;;;;;;;9.83;5.80;;;30.50;75.60;;;;;;5123573;28;20476;-49
2023/08/15 11:36:39;;;;;;;4.80;4.50;;;30.50;72.70;;;;;;5126754;28;20468;-48
2023/08/15 11:39:13;;;;;;;5.50;5.00;;;30.20;74.80;;;;;;5129676;28;20268;-49
2023/08/15 11:41:45;;;;;;;9.60;6.37;;;30.20;75.00;;;;;;5140160;28;20511;-48
2023/08/15 11:44:21;;;;;;;5.20;4.33;;;30.30;74.60;;;;;;5143516;28;20439;-49
2023/08/15 11:46:52;;;;;;;4.60;4.20;;;30.20;74.30;;;;;;5124475;28;20184;-49
2023/08/15 11:49:23;;;;;;;4.80;4.40;;;30.20;75.30;;;;;;5142108;28;20443;-48
2023/08/15 11:52:03;;;;;;;5.27;4.83;;;30.30;76.40;;;;;;5127463;28;20205;-48
2023/08/15 11:54:33;;;;;;;5.13;4.80;;;30.40;77.30;;;;;;5139522;28;20443;-48
2023/08/15 11:57:04;;;;;;;4.83;4.43;;;30.50;77.00;;;;;;5141599;28;20472;-47
2023/08/15 11:59:36;;;;;;;5.30;4.30;;;30.60;75.40;;;;;;5139155;28;20193;-49
2023/08/15 12:02:11;;;;;;;4.40;4.17;;;30.70;74.70;;;;;;5137389;28;20620;-49
2023/08/15 12:04:41;;;;;;;4.20;3.80;;;30.70;74.90;;;;;;5143804;28;20184;-49
2023/08/15 12:07:12;;;;;;;7.50;4.97;;;30.70;73.40;;;;;;5140325;28;20190;-49
2023/08/15 12:09:43;;;;;;;6.80;4.67;;;30.70;72.70;;;;;;5144863;28;20186;-49
2023/08/15 12:12:20;;;;;;;4.53;4.33;;;30.80;72.80;;;;;;5141277;28;20207;-48
2023/08/15 12:14:52;;;;;;;3.53;3.43;;;30.80;72.10;;;;;;5147465;28;20196;-48
2023/08/15 12:17:23;;;;;;;6.73;4.40;;;30.80;71.70;;;;;;5139176;28;20254;-48
2023/08/15 12:19:54;;;;;;;3.70;3.40;;;30.80;70.70;;;;;;5144487;28;20280;-49
2023/08/15 12:22:25;;;;;;;6.93;4.30;;;30.80;70.90;;;;;;5149242;28;20228;-49
2023/08/15 12:24:56;;;;;;;4.77;4.37;;;30.90;70.40;;;;;;5129508;28;20186;-46
2023/08/15 12:27:27;;;;;;;4.50;4.17;;;30.80;69.80;;;;;;5147184;28;20236;-48
2023/08/15 12:29:58;;;;;;;5.97;4.60;;;30.70;69.80;;;;;;5147278;28;20611;-49
2023/08/15 12:32:28;;;;;;;33.00;4.80;;;30.70;70.50;;;;;;5142491;28;20231;-49
2023/08/15 12:34:59;;;;;;;4.30;3.83;;;30.60;70.20;;;;;;5144329;28;20216;-48
2023/08/15 12:37:30;;;;;;;3.20;2.90;;;30.80;69.50;;;;;;5142596;28;20624;-49
2023/08/15 12:40:00;;;;;;;13.30;3.47;;;30.80;69.40;;;;;;5149624;28;20213;-50
2023/08/15 12:42:31;;;;;;;4.30;3.20;;;30.90;69.00;;;;;;5127195;28;20205;-48
2023/08/15 12:45:03;;;;;;;3.17;2.97;;;31.10;67.20;;;;;;5142356;28;20296;-49
2023/08/15 12:47:33;;;;;;;3.10;3.00;;;31.10;66.60;;;;;;5142393;28;20181;-47
2023/08/15 12:50:05;;;;;;;5.10;3.33;;;31.10;67.90;;;;;;5124641;28;20322;-47
2023/08/15 12:52:36;;;;;;;3.27;3.17;;;31.10;65.40;;;;;;5144598;28;20185;-48
2023/08/15 12:55:07;;;;;;;3.80;3.43;;;31.10;66.30;;;;;;5148842;28;20268;-50
2023/08/15 12:57:37;;;;;;;2.90;2.80;;;31.10;66.30;;;;;;5147228;28;20544;-48
2023/08/15 13:00:09;;;;;;;5.97;4.37;;;31.20;66.30;;;;;;5145755;28;20189;-49
2023/08/15 13:02:39;;;;;;;3.90;3.60;;;31.20;65.40;;;;;;5132755;28;20197;-47
2023/08/15 13:05:10;;;;;;;9.43;3.43;;;31.20;66.30;;;;;;5148615;28;20688;-48